sensor_id;sensor_type;location;lat;lon;timestamp;P1;durP1;ratioP1;P2;durP2;ratioP2
18286;SDS011;9269;50.838;12.094;2023-07-31T00:00:56;3.77;;;2.10;;
18286;SDS011;9269;50.838;12.094;2023-07-31T00:03:25;3.80;;;1.73;;
18286;SDS011;9269;50.838;12.094;2023-07-31T00:05:54;2.50;;;2.07;;
18286;SDS011;9269;50.838;12.094;2023-07-31T00:08:22;5.57;;;2.50;;
18286;SDS011;9269;50.838;12.094;2023-07-31T00:10:51;5.73;;;2.97;;
18286;SDS011;9269;50.838;12.094;2023-07-31T00:13:20;4.47;;;2.43;;
18286;SDS011;9269;50.838;12.094;2023-07-31T00:15:48;6.60;;;2.90;;
18286;SDS011;9269;50.838;12.094;2023-07-31T00:18:18;4.87;;;2.57;;
18286;SDS011;9269;50.838;12.094;2023-07-31T00:20:47;3.63;;;2.67;;
18286;SDS011;9269;50.838;12.094;2023-07-31T00:23:15;4.57;;;2.80;;
18286;SDS011;9269;50.838;12.094;2023-07-31T00:25:43;5.30;;;2.87;;
18286;SDS011;9269;50.838;12.094;2023-07-31T00:28:12;5.03;;;2.50;;
18286;SDS011;9269;50.838;12.094;2023-07-31T00:30:40;3.30;;;2.47;;
18286;SDS011;9269;50.838;12.094;2023-07-31T00:33:09;3.30;;;2.20;;
18286;SDS011;9269;50.838;12.094;2023-07-31T00:35:39;3.17;;;2.20;;
18286;SDS011;9269;50.838;12.094;2023-07-31T00:38:07;3.83;;;2.17;;
18286;SDS011;9269;50.838;12.094;2023-07-31T00:40:36;3.57;;;2.40;;
18286;SDS011;9269;50.838;12.094;2023-07-31T00:43:05;3.03;;;2.23;;
18286;SDS011;9269;50.838;12.094;2023-07-31T00:45:33;4.63;;;2.07;;
18286;SDS011;9269;50.838;12.094;2023-07-31T00:48:02;2.40;;;2.00;;
18286;SDS011;9269;50.838;12.094;2023-07-31T00:50:33;2.80;;;1.87;;
18286;SDS011;9269;50.838;12.094;2023-07-31T00:53:04;3.10;;;2.30;;
18286;SDS011;9269;50.838;12.094;2023-07-31T00:55:32;3.93;;;1.90;;
18286;SDS011;9269;50.838;12.094;2023-07-31T00:58:00;4.60;;;1.90;;
18286;SDS011;9269;50.838;12.094;2023-07-31T01:00:29;2.83;;;1.93;;
18286;SDS011;9269;50.838;12.094;2023-07-31T01:02:57;4.37;;;2.27;;
18286;SDS011;9269;50.838;12.094;2023-07-31T01:05:29;4.07;;;2.33;;
18286;SDS011;9269;50.838;12.094;2023-07-31T01:08:04;3.93;;;2.27;;
18286;SDS011;9269;50.838;12.094;2023-07-31T01:10:41;2.47;;;1.90;;
18286;SDS011;9269;50.838;12.094;2023-07-31T01:13:16;2.37;;;2.17;;
18286;SDS011;9269;50.838;12.094;2023-07-31T01:15:47;3.47;;;2.10;;
18286;SDS011;9269;50.838;12.094;2023-07-31T01:18:15;4.00;;;2.20;;
18286;SDS011;9269;50.838;12.094;2023-07-31T01:20:44;3.30;;;2.20;;
18286;SDS011;9269;50.838;12.094;2023-07-31T01:23:37;3.20;;;1.90;;
18286;SDS011;9269;50.838;12.094;2023-07-31T01:26:20;2.60;;;1.80;;
18286;SDS011;9269;50.838;12.094;2023-07-31T01:28:53;5.17;;;2.17;;
18286;SDS011;9269;50.838;12.094;2023-07-31T01:31:26;3.43;;;1.90;;
18286;SDS011;9269;50.838;12.094;2023-07-31T01:33:58;2.53;;;1.90;;
18286;SDS011;9269;50.838;12.094;2023-07-31T01:36:29;4.07;;;2.27;;
18286;SDS011;9269;50.838;12.094;2023-07-31T01:38:58;4.23;;;2.10;;
18286;SDS011;9269;50.838;12.094;2023-07-31T01:41:28;3.73;;;2.20;;
18286;SDS011;9269;50.838;12.094;2023-07-31T01:43:57;5.00;;;2.30;;
18286;SDS011;9269;50.838;12.094;2023-07-31T01:46:26;3.27;;;2.10;;
18286;SDS011;9269;50.838;12.094;2023-07-31T01:48:54;4.60;;;2.30;;
18286;SDS011;9269;50.838;12.094;2023-07-31T01:51:23;4.33;;;2.30;;
18286;SDS011;9269;50.838;12.094;2023-07-31T01:53:51;4.17;;;2.20;;
18286;SDS011;9269;50.838;12.094;2023-07-31T01:56:20;3.23;;;1.90;;
18286;SDS011;9269;50.838;12.094;2023-07-31T01:58:49;4.07;;;2.10;;
18286;SDS011;9269;50.838;12.094;2023-07-31T02:01:18;2.73;;;2.40;;
18286;SDS011;9269;50.838;12.094;2023-07-31T02:03:47;2.63;;;2.40;;
18286;SDS011;9269;50.838;12.094;2023-07-31T02:06:15;4.00;;;2.87;;
18286;SDS011;9269;50.838;12.094;2023-07-31T02:08:44;3.63;;;2.00;;
18286;SDS011;9269;50.838;12.094;2023-07-31T02:11:12;4.50;;;2.30;;
18286;SDS011;9269;50.838;12.094;2023-07-31T02:13:41;3.17;;;1.80;;
18286;SDS011;9269;50.838;12.094;2023-07-31T02:16:11;2.87;;;2.10;;
18286;SDS011;9269;50.838;12.094;2023-07-31T02:18:40;4.27;;;2.40;;
18286;SDS011;9269;50.838;12.094;2023-07-31T02:21:08;3.37;;;2.27;;
18286;SDS011;9269;50.838;12.094;2023-07-31T02:23:37;4.23;;;2.30;;
18286;SDS011;9269;50.838;12.094;2023-07-31T02:26:05;3.00;;;2.07;;
18286;SDS011;9269;50.838;12.094;2023-07-31T02:28:34;3.30;;;2.20;;
18286;SDS011;9269;50.838;12.094;2023-07-31T02:31:03;4.97;;;2.10;;
18286;SDS011;9269;50.838;12.094;2023-07-31T02:33:32;3.30;;;2.23;;
18286;SDS011;9269;50.838;12.094;2023-07-31T02:36:01;4.03;;;2.40;;
18286;SDS011;9269;50.838;12.094;2023-07-31T02:38:29;3.80;;;2.40;;
18286;SDS011;9269;50.838;12.094;2023-07-31T02:40:58;3.57;;;2.30;;
18286;SDS011;9269;50.838;12.094;2023-07-31T02:43:27;4.17;;;2.20;;
18286;SDS011;9269;50.838;12.094;2023-07-31T02:45:55;4.33;;;2.57;;
18286;SDS011;9269;50.838;12.094;2023-07-31T02:48:24;5.07;;;2.47;;
18286;SDS011;9269;50.838;12.094;2023-07-31T02:50:54;2.60;;;2.00;;
18286;SDS011;9269;50.838;12.094;2023-07-31T02:53:22;4.10;;;2.20;;
18286;SDS011;9269;50.838;12.094;2023-07-31T02:55:51;4.30;;;2.40;;
18286;SDS011;9269;50.838;12.094;2023-07-31T02:58:19;4.17;;;2.33;;
18286;SDS011;9269;50.838;12.094;2023-07-31T03:00:48;5.37;;;2.73;;
18286;SDS011;9269;50.838;12.094;2023-07-31T03:03:16;2.83;;;2.53;;
18286;SDS011;9269;50.838;12.094;2023-07-31T03:05:45;5.63;;;2.00;;
18286;SDS011;9269;50.838;12.094;2023-07-31T03:08:15;4.17;;;2.40;;
18286;SDS011;9269;50.838;12.094;2023-07-31T03:10:43;4.00;;;2.23;;
18286;SDS011;9269;50.838;12.094;2023-07-31T03:13:12;3.87;;;2.50;;
18286;SDS011;9269;50.838;12.094;2023-07-31T03:15:42;4.03;;;2.20;;
18286;SDS011;9269;50.838;12.094;2023-07-31T03:18:11;2.87;;;2.53;;
18286;SDS011;9269;50.838;12.094;2023-07-31T03:20:41;3.20;;;2.10;;
18286;SDS011;9269;50.838;12.094;2023-07-31T03:23:10;3.23;;;2.20;;
18286;SDS011;9269;50.838;12.094;2023-07-31T03:25:41;4.30;;;2.30;;
18286;SDS011;9269;50.838;12.094;2023-07-31T03:28:22;4.73;;;2.20;;
18286;SDS011;9269;50.838;12.094;2023-07-31T03:30:51;4.17;;;2.40;;
18286;SDS011;9269;50.838;12.094;2023-07-31T03:33:21;4.87;;;2.90;;
18286;SDS011;9269;50.838;12.094;2023-07-31T03:35:49;5.87;;;2.40;;
18286;SDS011;9269;50.838;12.094;2023-07-31T03:38:18;4.93;;;2.27;;
18286;SDS011;9269;50.838;12.094;2023-07-31T03:40:47;3.33;;;2.33;;
18286;SDS011;9269;50.838;12.094;2023-07-31T03:43:16;5.07;;;2.20;;
18286;SDS011;9269;50.838;12.094;2023-07-31T03:45:45;4.93;;;2.40;;
18286;SDS011;9269;50.838;12.094;2023-07-31T03:48:14;4.13;;;2.23;;
18286;SDS011;9269;50.838;12.094;2023-07-31T03:50:42;4.27;;;2.53;;
18286;SDS011;9269;50.838;12.094;2023-07-31T03:53:11;3.00;;;2.30;;
18286;SDS011;9269;50.838;12.094;2023-07-31T03:55:39;5.93;;;2.53;;
18286;SDS011;9269;50.838;12.094;2023-07-31T03:58:09;4.83;;;2.90;;
18286;SDS011;9269;50.838;12.094;2023-07-31T04:00:37;4.03;;;2.33;;
18286;SDS011;9269;50.838;12.094;2023-07-31T04:03:07;3.13;;;2.13;;
18286;SDS011;9269;50.838;12.094;2023-07-31T04:05:37;4.67;;;2.63;;
18286;SDS011;9269;50.838;12.094;2023-07-31T04:08:07;4.07;;;2.60;;
18286;SDS011;9269;50.838;12.094;2023-07-31T04:10:35;3.10;;;2.20;;
18286;SDS011;9269;50.838;12.094;2023-07-31T04:13:05;2.93;;;2.47;;
18286;SDS011;9269;50.838;12.094;2023-07-31T04:15:35;6.13;;;2.70;;
18286;SDS011;9269;50.838;12.094;2023-07-31T04:18:04;3.10;;;2.10;;
18286;SDS011;9269;50.838;12.094;2023-07-31T04:20:33;2.77;;;2.30;;
18286;SDS011;9269;50.838;12.094;2023-07-31T04:23:01;3.27;;;2.20;;
18286;SDS011;9269;50.838;12.094;2023-07-31T04:25:30;3.53;;;2.40;;
18286;SDS011;9269;50.838;12.094;2023-07-31T04:27:59;3.40;;;2.33;;
18286;SDS011;9269;50.838;12.094;2023-07-31T04:30:27;6.30;;;2.83;;
18286;SDS011;9269;50.838;12.094;2023-07-31T04:32:57;3.67;;;2.60;;
18286;SDS011;9269;50.838;12.094;2023-07-31T04:35:25;2.90;;;2.33;;
18286;SDS011;9269;50.838;12.094;2023-07-31T04:37:55;3.40;;;2.37;;
18286;SDS011;9269;50.838;12.094;2023-07-31T04:40:23;2.80;;;2.00;;
18286;SDS011;9269;50.838;12.094;2023-07-31T04:42:53;4.37;;;2.10;;
18286;SDS011;9269;50.838;12.094;2023-07-31T04:45:21;3.40;;;2.37;;
18286;SDS011;9269;50.838;12.094;2023-07-31T04:47:50;4.53;;;2.43;;
18286;SDS011;9269;50.838;12.094;2023-07-31T04:50:19;4.37;;;2.60;;
18286;SDS011;9269;50.838;12.094;2023-07-31T04:52:48;2.50;;;2.30;;
18286;SDS011;9269;50.838;12.094;2023-07-31T04:55:16;3.63;;;2.30;;
18286;SDS011;9269;50.838;12.094;2023-07-31T04:57:46;4.53;;;2.50;;
18286;SDS011;9269;50.838;12.094;2023-07-31T05:00:15;3.97;;;2.13;;
18286;SDS011;9269;50.838;12.094;2023-07-31T05:02:44;3.90;;;2.67;;
18286;SDS011;9269;50.838;12.094;2023-07-31T05:05:13;3.90;;;2.40;;
18286;SDS011;9269;50.838;12.094;2023-07-31T05:07:43;3.57;;;2.17;;
18286;SDS011;9269;50.838;12.094;2023-07-31T05:10:11;4.60;;;2.63;;
18286;SDS011;9269;50.838;12.094;2023-07-31T05:12:40;4.37;;;2.20;;
18286;SDS011;9269;50.838;12.094;2023-07-31T05:15:09;4.43;;;2.90;;
18286;SDS011;9269;50.838;12.094;2023-07-31T05:17:38;5.20;;;2.77;;
18286;SDS011;9269;50.838;12.094;2023-07-31T05:20:07;4.70;;;2.60;;
18286;SDS011;9269;50.838;12.094;2023-07-31T05:22:36;5.30;;;2.70;;
18286;SDS011;9269;50.838;12.094;2023-07-31T05:25:07;4.10;;;2.47;;
18286;SDS011;9269;50.838;12.094;2023-07-31T05:27:38;4.27;;;2.10;;
18286;SDS011;9269;50.838;12.094;2023-07-31T05:30:07;3.93;;;2.40;;
18286;SDS011;9269;50.838;12.094;2023-07-31T05:32:36;4.30;;;2.97;;
18286;SDS011;9269;50.838;12.094;2023-07-31T05:35:05;4.27;;;2.70;;
18286;SDS011;9269;50.838;12.094;2023-07-31T05:37:35;4.33;;;2.40;;
18286;SDS011;9269;50.838;12.094;2023-07-31T05:40:04;5.50;;;2.90;;
18286;SDS011;9269;50.838;12.094;2023-07-31T05:42:34;3.40;;;2.60;;
18286;SDS011;9269;50.838;12.094;2023-07-31T05:45:05;4.30;;;2.37;;
18286;SDS011;9269;50.838;12.094;2023-07-31T05:47:35;4.43;;;2.40;;
18286;SDS011;9269;50.838;12.094;2023-07-31T05:50:03;4.40;;;2.63;;
18286;SDS011;9269;50.838;12.094;2023-07-31T05:52:32;5.27;;;2.90;;
18286;SDS011;9269;50.838;12.094;2023-07-31T05:55:01;4.73;;;2.63;;
18286;SDS011;9269;50.838;12.094;2023-07-31T05:57:30;2.77;;;2.23;;
18286;SDS011;9269;50.838;12.094;2023-07-31T06:00:01;5.17;;;2.50;;
18286;SDS011;9269;50.838;12.094;2023-07-31T06:02:30;3.50;;;2.60;;
18286;SDS011;9269;50.838;12.094;2023-07-31T06:05:05;3.03;;;2.43;;
18286;SDS011;9269;50.838;12.094;2023-07-31T06:07:35;3.20;;;2.77;;
18286;SDS011;9269;50.838;12.094;2023-07-31T06:10:04;2.80;;;2.33;;
18286;SDS011;9269;50.838;12.094;2023-07-31T06:12:34;3.57;;;2.40;;
18286;SDS011;9269;50.838;12.094;2023-07-31T06:15:05;3.43;;;2.70;;
18286;SDS011;9269;50.838;12.094;2023-07-31T06:17:35;4.60;;;2.57;;
18286;SDS011;9269;50.838;12.094;2023-07-31T06:20:06;3.63;;;2.60;;
18286;SDS011;9269;50.838;12.094;2023-07-31T06:22:35;6.27;;;2.63;;
18286;SDS011;9269;50.838;12.094;2023-07-31T06:25:04;4.97;;;3.97;;
18286;SDS011;9269;50.838;12.094;2023-07-31T06:27:33;6.20;;;4.70;;
18286;SDS011;9269;50.838;12.094;2023-07-31T06:30:02;7.57;;;5.23;;
18286;SDS011;9269;50.838;12.094;2023-07-31T06:32:33;5.57;;;3.90;;
18286;SDS011;9269;50.838;12.094;2023-07-31T06:35:03;5.77;;;4.63;;
18286;SDS011;9269;50.838;12.094;2023-07-31T06:37:32;5.93;;;3.70;;
18286;SDS011;9269;50.838;12.094;2023-07-31T06:40:04;9.47;;;4.70;;
18286;SDS011;9269;50.838;12.094;2023-07-31T06:42:35;7.47;;;4.83;;
18286;SDS011;9269;50.838;12.094;2023-07-31T06:45:04;5.80;;;4.77;;
18286;SDS011;9269;50.838;12.094;2023-07-31T06:47:35;6.30;;;3.90;;
18286;SDS011;9269;50.838;12.094;2023-07-31T06:50:05;3.63;;;3.00;;
18286;SDS011;9269;50.838;12.094;2023-07-31T06:52:34;4.20;;;3.47;;
18286;SDS011;9269;50.838;12.094;2023-07-31T06:55:03;3.90;;;2.70;;
18286;SDS011;9269;50.838;12.094;2023-07-31T06:57:44;4.23;;;2.60;;
18286;SDS011;9269;50.838;12.094;2023-07-31T07:00:13;5.20;;;3.00;;
18286;SDS011;9269;50.838;12.094;2023-07-31T07:02:45;4.37;;;3.20;;
18286;SDS011;9269;50.838;12.094;2023-07-31T07:05:15;4.50;;;3.80;;
18286;SDS011;9269;50.838;12.094;2023-07-31T07:07:45;7.77;;;5.20;;
18286;SDS011;9269;50.838;12.094;2023-07-31T07:10:14;7.30;;;4.83;;
18286;SDS011;9269;50.838;12.094;2023-07-31T07:12:42;5.17;;;4.47;;
18286;SDS011;9269;50.838;12.094;2023-07-31T07:15:11;5.93;;;4.10;;
18286;SDS011;9269;50.838;12.094;2023-07-31T07:17:39;5.33;;;4.10;;
18286;SDS011;9269;50.838;12.094;2023-07-31T07:20:10;5.90;;;4.10;;
18286;SDS011;9269;50.838;12.094;2023-07-31T07:22:39;5.47;;;4.00;;
18286;SDS011;9269;50.838;12.094;2023-07-31T07:25:10;6.10;;;3.83;;
18286;SDS011;9269;50.838;12.094;2023-07-31T07:27:39;6.30;;;4.03;;
18286;SDS011;9269;50.838;12.094;2023-07-31T07:30:08;5.97;;;3.90;;
18286;SDS011;9269;50.838;12.094;2023-07-31T07:32:37;5.93;;;4.13;;
18286;SDS011;9269;50.838;12.094;2023-07-31T07:35:06;5.23;;;4.20;;
18286;SDS011;9269;50.838;12.094;2023-07-31T07:37:36;5.17;;;3.57;;
18286;SDS011;9269;50.838;12.094;2023-07-31T07:40:06;7.83;;;4.07;;
18286;SDS011;9269;50.838;12.094;2023-07-31T07:42:36;5.60;;;3.83;;
18286;SDS011;9269;50.838;12.094;2023-07-31T07:45:05;5.87;;;3.30;;
18286;SDS011;9269;50.838;12.094;2023-07-31T07:47:34;5.90;;;3.47;;
18286;SDS011;9269;50.838;12.094;2023-07-31T07:50:03;4.00;;;3.20;;
18286;SDS011;9269;50.838;12.094;2023-07-31T07:52:37;4.37;;;3.23;;
18286;SDS011;9269;50.838;12.094;2023-07-31T07:55:06;4.17;;;3.03;;
18286;SDS011;9269;50.838;12.094;2023-07-31T07:57:35;5.30;;;3.40;;
18286;SDS011;9269;50.838;12.094;2023-07-31T08:00:04;6.40;;;3.60;;
18286;SDS011;9269;50.838;12.094;2023-07-31T08:02:33;6.10;;;3.80;;
18286;SDS011;9269;50.838;12.094;2023-07-31T08:05:02;6.93;;;3.77;;
18286;SDS011;9269;50.838;12.094;2023-07-31T08:07:31;5.43;;;3.63;;
18286;SDS011;9269;50.838;12.094;2023-07-31T08:10:01;5.13;;;3.57;;
18286;SDS011;9269;50.838;12.094;2023-07-31T08:12:29;4.00;;;3.60;;
18286;SDS011;9269;50.838;12.094;2023-07-31T08:14:58;4.23;;;3.70;;
18286;SDS011;9269;50.838;12.094;2023-07-31T08:17:27;4.97;;;3.17;;
18286;SDS011;9269;50.838;12.094;2023-07-31T08:19:56;5.43;;;3.37;;
18286;SDS011;9269;50.838;12.094;2023-07-31T08:22:25;4.57;;;3.23;;
18286;SDS011;9269;50.838;12.094;2023-07-31T08:24:54;7.00;;;4.77;;
18286;SDS011;9269;50.838;12.094;2023-07-31T08:27:24;6.67;;;5.47;;
18286;SDS011;9269;50.838;12.094;2023-07-31T08:29:52;5.17;;;4.00;;
18286;SDS011;9269;50.838;12.094;2023-07-31T08:32:21;6.00;;;4.53;;
18286;SDS011;9269;50.838;12.094;2023-07-31T08:34:49;4.37;;;3.73;;
18286;SDS011;9269;50.838;12.094;2023-07-31T08:37:18;7.00;;;4.00;;
18286;SDS011;9269;50.838;12.094;2023-07-31T08:39:47;6.17;;;4.23;;
18286;SDS011;9269;50.838;12.094;2023-07-31T08:42:16;5.17;;;3.87;;
18286;SDS011;9269;50.838;12.094;2023-07-31T08:44:46;5.17;;;3.60;;
18286;SDS011;9269;50.838;12.094;2023-07-31T08:47:15;4.90;;;3.40;;
18286;SDS011;9269;50.838;12.094;2023-07-31T08:49:44;6.90;;;3.40;;
18286;SDS011;9269;50.838;12.094;2023-07-31T08:52:15;4.83;;;3.30;;
18286;SDS011;9269;50.838;12.094;2023-07-31T08:54:44;5.40;;;3.67;;
18286;SDS011;9269;50.838;12.094;2023-07-31T08:57:12;6.67;;;3.50;;
18286;SDS011;9269;50.838;12.094;2023-07-31T08:59:42;6.93;;;3.67;;
18286;SDS011;9269;50.838;12.094;2023-07-31T09:02:13;6.63;;;3.40;;
18286;SDS011;9269;50.838;12.094;2023-07-31T09:04:45;4.93;;;3.00;;
18286;SDS011;9269;50.838;12.094;2023-07-31T09:07:14;4.80;;;3.03;;
18286;SDS011;9269;50.838;12.094;2023-07-31T09:09:45;5.53;;;3.60;;
18286;SDS011;9269;50.838;12.094;2023-07-31T09:12:14;4.93;;;3.70;;
18286;SDS011;9269;50.838;12.094;2023-07-31T09:14:43;6.03;;;3.37;;
18286;SDS011;9269;50.838;12.094;2023-07-31T09:17:15;3.97;;;3.20;;
18286;SDS011;9269;50.838;12.094;2023-07-31T09:19:45;4.50;;;3.30;;
18286;SDS011;9269;50.838;12.094;2023-07-31T09:22:15;4.67;;;3.43;;
18286;SDS011;9269;50.838;12.094;2023-07-31T09:24:43;5.63;;;3.30;;
18286;SDS011;9269;50.838;12.094;2023-07-31T09:27:12;5.00;;;3.00;;
18286;SDS011;9269;50.838;12.094;2023-07-31T09:29:41;4.03;;;3.00;;
18286;SDS011;9269;50.838;12.094;2023-07-31T09:32:16;5.07;;;3.03;;
18286;SDS011;9269;50.838;12.094;2023-07-31T09:34:45;5.80;;;3.67;;
18286;SDS011;9269;50.838;12.094;2023-07-31T09:37:14;5.43;;;3.53;;
18286;SDS011;9269;50.838;12.094;2023-07-31T09:39:46;6.27;;;3.17;;
18286;SDS011;9269;50.838;12.094;2023-07-31T09:42:24;5.47;;;3.43;;
18286;SDS011;9269;50.838;12.094;2023-07-31T09:44:53;5.53;;;3.13;;
18286;SDS011;9269;50.838;12.094;2023-07-31T09:47:27;4.00;;;2.97;;
18286;SDS011;9269;50.838;12.094;2023-07-31T09:49:57;5.03;;;3.40;;
18286;SDS011;9269;50.838;12.094;2023-07-31T09:52:26;4.10;;;3.10;;
18286;SDS011;9269;50.838;12.094;2023-07-31T09:54:56;4.63;;;3.47;;
18286;SDS011;9269;50.838;12.094;2023-07-31T09:57:25;3.97;;;2.97;;
18286;SDS011;9269;50.838;12.094;2023-07-31T09:59:55;3.33;;;2.70;;
18286;SDS011;9269;50.838;12.094;2023-07-31T10:02:24;4.67;;;2.80;;
18286;SDS011;9269;50.838;12.094;2023-07-31T10:04:58;3.93;;;2.70;;
18286;SDS011;9269;50.838;12.094;2023-07-31T10:07:29;3.43;;;2.53;;
18286;SDS011;9269;50.838;12.094;2023-07-31T10:10:02;3.07;;;2.70;;
18286;SDS011;9269;50.838;12.094;2023-07-31T10:12:33;3.17;;;2.67;;
18286;SDS011;9269;50.838;12.094;2023-07-31T10:15:02;4.60;;;2.80;;
18286;SDS011;9269;50.838;12.094;2023-07-31T10:17:33;4.10;;;2.50;;
18286;SDS011;9269;50.838;12.094;2023-07-31T10:20:05;3.33;;;2.70;;
18286;SDS011;9269;50.838;12.094;2023-07-31T10:22:35;3.40;;;2.43;;
18286;SDS011;9269;50.838;12.094;2023-07-31T10:25:05;3.37;;;2.57;;
18286;SDS011;9269;50.838;12.094;2023-07-31T10:27:37;3.40;;;2.63;;
18286;SDS011;9269;50.838;12.094;2023-07-31T10:30:07;3.00;;;2.70;;
18286;SDS011;9269;50.838;12.094;2023-07-31T10:32:41;4.10;;;2.83;;
18286;SDS011;9269;50.838;12.094;2023-07-31T10:35:11;3.00;;;2.67;;
18286;SDS011;9269;50.838;12.094;2023-07-31T10:37:41;3.67;;;2.60;;
18286;SDS011;9269;50.838;12.094;2023-07-31T10:40:16;5.40;;;3.20;;
18286;SDS011;9269;50.838;12.094;2023-07-31T10:42:48;4.63;;;2.50;;
18286;SDS011;9269;50.838;12.094;2023-07-31T10:45:24;3.67;;;2.70;;
18286;SDS011;9269;50.838;12.094;2023-07-31T10:47:59;3.97;;;3.00;;
18286;SDS011;9269;50.838;12.094;2023-07-31T10:50:28;3.23;;;2.60;;
18286;SDS011;9269;50.838;12.094;2023-07-31T10:53:00;3.80;;;2.90;;
18286;SDS011;9269;50.838;12.094;2023-07-31T10:55:30;3.33;;;2.70;;
18286;SDS011;9269;50.838;12.094;2023-07-31T10:58:05;3.37;;;2.60;;
18286;SDS011;9269;50.838;12.094;2023-07-31T11:00:36;4.03;;;2.40;;
18286;SDS011;9269;50.838;12.094;2023-07-31T11:03:08;4.40;;;2.80;;
18286;SDS011;9269;50.838;12.094;2023-07-31T11:05:53;3.77;;;2.63;;
18286;SDS011;9269;50.838;12.094;2023-07-31T11:08:31;2.90;;;2.47;;
18286;SDS011;9269;50.838;12.094;2023-07-31T11:11:07;2.43;;;2.23;;
18286;SDS011;9269;50.838;12.094;2023-07-31T11:13:40;3.77;;;2.90;;
18286;SDS011;9269;50.838;12.094;2023-07-31T11:16:11;3.57;;;2.53;;
18286;SDS011;9269;50.838;12.094;2023-07-31T11:18:42;3.43;;;2.57;;
18286;SDS011;9269;50.838;12.094;2023-07-31T11:21:12;3.33;;;2.97;;
18286;SDS011;9269;50.838;12.094;2023-07-31T11:23:41;3.97;;;2.97;;
18286;SDS011;9269;50.838;12.094;2023-07-31T11:26:13;3.47;;;2.57;;
18286;SDS011;9269;50.838;12.094;2023-07-31T11:28:42;4.50;;;3.10;;
18286;SDS011;9269;50.838;12.094;2023-07-31T11:31:13;3.23;;;2.40;;
18286;SDS011;9269;50.838;12.094;2023-07-31T11:33:44;3.97;;;2.90;;
18286;SDS011;9269;50.838;12.094;2023-07-31T11:36:16;4.30;;;2.50;;
18286;SDS011;9269;50.838;12.094;2023-07-31T11:38:45;2.70;;;2.33;;
18286;SDS011;9269;50.838;12.094;2023-07-31T11:41:16;4.47;;;2.90;;
18286;SDS011;9269;50.838;12.094;2023-07-31T11:43:45;3.67;;;2.40;;
18286;SDS011;9269;50.838;12.094;2023-07-31T11:46:14;3.97;;;2.60;;
18286;SDS011;9269;50.838;12.094;2023-07-31T11:48:44;3.17;;;2.67;;
18286;SDS011;9269;50.838;12.094;2023-07-31T11:51:13;6.00;;;3.00;;
18286;SDS011;9269;50.838;12.094;2023-07-31T11:53:43;4.07;;;3.00;;
18286;SDS011;9269;50.838;12.094;2023-07-31T11:56:14;3.17;;;2.50;;
18286;SDS011;9269;50.838;12.094;2023-07-31T11:58:46;3.57;;;3.13;;
18286;SDS011;9269;50.838;12.094;2023-07-31T12:01:16;3.53;;;2.60;;
18286;SDS011;9269;50.838;12.094;2023-07-31T12:03:49;3.37;;;2.50;;
18286;SDS011;9269;50.838;12.094;2023-07-31T12:06:19;3.13;;;2.83;;
18286;SDS011;9269;50.838;12.094;2023-07-31T12:08:49;3.73;;;2.57;;
18286;SDS011;9269;50.838;12.094;2023-07-31T12:11:17;3.70;;;2.60;;
18286;SDS011;9269;50.838;12.094;2023-07-31T12:13:46;3.00;;;2.40;;
18286;SDS011;9269;50.838;12.094;2023-07-31T12:16:14;2.97;;;2.47;;
18286;SDS011;9269;50.838;12.094;2023-07-31T12:18:43;3.20;;;2.40;;
18286;SDS011;9269;50.838;12.094;2023-07-31T12:21:13;3.03;;;2.70;;
18286;SDS011;9269;50.838;12.094;2023-07-31T12:23:43;5.00;;;3.10;;
18286;SDS011;9269;50.838;12.094;2023-07-31T12:26:13;2.83;;;2.50;;
18286;SDS011;9269;50.838;12.094;2023-07-31T12:28:42;3.90;;;3.00;;
18286;SDS011;9269;50.838;12.094;2023-07-31T12:31:12;4.10;;;2.93;;
18286;SDS011;9269;50.838;12.094;2023-07-31T12:33:42;3.47;;;2.70;;
18286;SDS011;9269;50.838;12.094;2023-07-31T12:36:13;2.90;;;2.50;;
18286;SDS011;9269;50.838;12.094;2023-07-31T12:38:43;4.37;;;3.10;;
18286;SDS011;9269;50.838;12.094;2023-07-31T12:41:13;3.70;;;2.70;;
18286;SDS011;9269;50.838;12.094;2023-07-31T12:43:44;2.90;;;2.40;;
18286;SDS011;9269;50.838;12.094;2023-07-31T12:46:13;3.07;;;2.70;;
18286;SDS011;9269;50.838;12.094;2023-07-31T12:48:43;3.63;;;2.43;;
18286;SDS011;9269;50.838;12.094;2023-07-31T12:51:13;2.90;;;2.60;;
18286;SDS011;9269;50.838;12.094;2023-07-31T12:53:41;3.80;;;2.87;;
18286;SDS011;9269;50.838;12.094;2023-07-31T12:56:10;3.33;;;2.70;;
18286;SDS011;9269;50.838;12.094;2023-07-31T12:58:39;3.60;;;2.80;;
18286;SDS011;9269;50.838;12.094;2023-07-31T13:01:14;3.23;;;2.70;;
18286;SDS011;9269;50.838;12.094;2023-07-31T13:03:42;3.60;;;2.37;;
18286;SDS011;9269;50.838;12.094;2023-07-31T13:06:13;3.20;;;2.70;;
18286;SDS011;9269;50.838;12.094;2023-07-31T13:08:42;3.27;;;2.67;;
18286;SDS011;9269;50.838;12.094;2023-07-31T13:11:11;3.07;;;2.60;;
18286;SDS011;9269;50.838;12.094;2023-07-31T13:13:39;3.47;;;2.93;;
18286;SDS011;9269;50.838;12.094;2023-07-31T13:16:09;4.47;;;2.80;;
18286;SDS011;9269;50.838;12.094;2023-07-31T13:18:37;3.00;;;2.50;;
18286;SDS011;9269;50.838;12.094;2023-07-31T13:21:06;3.37;;;2.60;;
18286;SDS011;9269;50.838;12.094;2023-07-31T13:23:36;3.13;;;2.60;;
18286;SDS011;9269;50.838;12.094;2023-07-31T13:26:05;3.50;;;2.57;;
18286;SDS011;9269;50.838;12.094;2023-07-31T13:28:33;2.80;;;2.60;;
18286;SDS011;9269;50.838;12.094;2023-07-31T13:31:02;2.40;;;2.20;;
18286;SDS011;9269;50.838;12.094;2023-07-31T13:33:31;3.03;;;2.50;;
18286;SDS011;9269;50.838;12.094;2023-07-31T13:36:04;4.10;;;2.53;;
18286;SDS011;9269;50.838;12.094;2023-07-31T13:38:33;4.23;;;2.80;;
18286;SDS011;9269;50.838;12.094;2023-07-31T13:41:03;3.70;;;2.67;;
18286;SDS011;9269;50.838;12.094;2023-07-31T13:43:33;3.07;;;2.77;;
18286;SDS011;9269;50.838;12.094;2023-07-31T13:46:01;2.87;;;2.60;;
18286;SDS011;9269;50.838;12.094;2023-07-31T13:48:34;3.27;;;2.83;;
18286;SDS011;9269;50.838;12.094;2023-07-31T13:51:02;4.40;;;2.53;;
18286;SDS011;9269;50.838;12.094;2023-07-31T13:53:31;3.47;;;2.83;;
18286;SDS011;9269;50.838;12.094;2023-07-31T13:56:00;3.20;;;2.90;;
18286;SDS011;9269;50.838;12.094;2023-07-31T13:58:30;6.30;;;2.70;;
18286;SDS011;9269;50.838;12.094;2023-07-31T14:00:59;3.57;;;2.73;;
18286;SDS011;9269;50.838;12.094;2023-07-31T14:03:27;4.37;;;3.00;;
18286;SDS011;9269;50.838;12.094;2023-07-31T14:05:56;3.40;;;2.80;;
18286;SDS011;9269;50.838;12.094;2023-07-31T14:08:25;2.57;;;2.30;;
18286;SDS011;9269;50.838;12.094;2023-07-31T14:10:53;3.37;;;2.30;;
18286;SDS011;9269;50.838;12.094;2023-07-31T14:13:22;2.70;;;2.50;;
18286;SDS011;9269;50.838;12.094;2023-07-31T14:15:52;3.30;;;2.70;;
18286;SDS011;9269;50.838;12.094;2023-07-31T14:18:20;2.90;;;2.60;;
18286;SDS011;9269;50.838;12.094;2023-07-31T14:20:49;2.93;;;2.50;;
18286;SDS011;9269;50.838;12.094;2023-07-31T14:23:19;3.03;;;2.57;;
18286;SDS011;9269;50.838;12.094;2023-07-31T14:25:49;4.70;;;2.33;;
18286;SDS011;9269;50.838;12.094;2023-07-31T14:28:17;4.27;;;2.60;;
18286;SDS011;9269;50.838;12.094;2023-07-31T14:30:46;3.70;;;3.20;;
18286;SDS011;9269;50.838;12.094;2023-07-31T14:33:16;3.83;;;3.37;;
18286;SDS011;9269;50.838;12.094;2023-07-31T14:35:45;3.10;;;2.77;;
18286;SDS011;9269;50.838;12.094;2023-07-31T14:38:13;4.07;;;3.67;;
18286;SDS011;9269;50.838;12.094;2023-07-31T14:40:42;4.23;;;3.17;;
18286;SDS011;9269;50.838;12.094;2023-07-31T14:43:10;5.27;;;3.73;;
18286;SDS011;9269;50.838;12.094;2023-07-31T14:45:39;8.63;;;5.20;;
18286;SDS011;9269;50.838;12.094;2023-07-31T14:48:08;5.97;;;4.40;;
18286;SDS011;9269;50.838;12.094;2023-07-31T14:50:38;4.23;;;3.87;;
18286;SDS011;9269;50.838;12.094;2023-07-31T14:53:07;3.63;;;3.30;;
18286;SDS011;9269;50.838;12.094;2023-07-31T14:55:35;4.40;;;3.20;;
18286;SDS011;9269;50.838;12.094;2023-07-31T14:58:04;4.77;;;3.13;;
18286;SDS011;9269;50.838;12.094;2023-07-31T15:00:32;4.43;;;3.03;;
18286;SDS011;9269;50.838;12.094;2023-07-31T15:03:02;3.97;;;3.10;;